Map

Track Data

SID SEASON NUMBER BASIN SUBBASIN NAME ISO_TIME NATURE LAT LON WMO_WIND WMO_PRES WMO_AGENCY TRACK_TYPE DIST2LAND LANDFALL IFLAG USA_AGENCY USA_ATCF_ID USA_LAT USA_LON USA_RECORD USA_STATUS USA_WIND USA_PRES USA_SSHS USA_R34_NE USA_R34_SE USA_R34_SW USA_R34_NW USA_R50_NE USA_R50_SE USA_R50_SW USA_R50_NW USA_R64_NE USA_R64_SE USA_R64_SW USA_R64_NW USA_POCI USA_ROCI USA_RMW USA_EYE TOKYO_LAT TOKYO_LON TOKYO_GRADE TOKYO_WIND TOKYO_PRES TOKYO_R50_DIR TOKYO_R50_LONG TOKYO_R50_SHORT TOKYO_R30_DIR TOKYO_R30_LONG TOKYO_R30_SHORT TOKYO_LAND CMA_LAT CMA_LON CMA_CAT CMA_WIND CMA_PRES HKO_LAT HKO_LON HKO_CAT HKO_WIND HKO_PRES NEWDELHI_LAT NEWDELHI_LON NEWDELHI_GRADE NEWDELHI_WIND NEWDELHI_PRES NEWDELHI_CI NEWDELHI_DP NEWDELHI_POCI REUNION_LAT REUNION_LON REUNION_TYPE REUNION_WIND REUNION_PRES REUNION_TNUM REUNION_CI REUNION_RMW REUNION_R34_NE REUNION_R34_SE REUNION_R34_SW REUNION_R34_NW REUNION_R50_NE REUNION_R50_SE REUNION_R50_SW REUNION_R50_NW REUNION_R64_NE REUNION_R64_SE REUNION_R64_SW REUNION_R64_NW BOM_LAT BOM_LON BOM_TYPE BOM_WIND BOM_PRES BOM_TNUM BOM_CI BOM_RMW BOM_R34_NE BOM_R34_SE BOM_R34_SW BOM_R34_NW BOM_R50_NE BOM_R50_SE BOM_R50_SW BOM_R50_NW BOM_R64_NE BOM_R64_SE BOM_R64_SW BOM_R64_NW BOM_ROCI BOM_POCI BOM_EYE BOM_POS_METHOD BOM_PRES_METHOD NADI_LAT NADI_LON NADI_CAT NADI_WIND NADI_PRES WELLINGTON_LAT WELLINGTON_LON WELLINGTON_WIND WELLINGTON_PRES DS824_LAT DS824_LON DS824_STAGE DS824_WIND DS824_PRES TD9636_LAT TD9636_LON TD9636_STAGE TD9636_WIND TD9636_PRES TD9635_LAT TD9635_LON TD9635_WIND TD9635_PRES TD9635_ROCI NEUMANN_LAT NEUMANN_LON NEUMANN_CLASS NEUMANN_WIND NEUMANN_PRES MLC_LAT MLC_LON MLC_CLASS MLC_WIND MLC_PRES USA_GUST BOM_GUST BOM_GUST_PER REUNION_GUST REUNION_GUST_PER USA_SEAHGT USA_SEARAD_NE USA_SEARAD_SE USA_SEARAD_SW USA_SEARAD_NW STORM_SPEED STORM_DIR
1950285N22313 1950 90 NA NA JIG 1950-10-11 12:00:00 TS 22.4000 -47.0000 40 hurdat_atl main 1982 1939 O_____________ hurdat_atl AL101950 22.4000 -47.0000 TS 40 0 10 288
1950285N22313 1950 90 NA NA JIG 1950-10-11 15:00:00 TS 22.5504 -47.5023 main 1941 1892 P_____________ AL101950 22.5504 -47.5023 TS 40 0 10 288
1950285N22313 1950 90 NA NA JIG 1950-10-11 18:00:00 TS 22.7000 -48.0000 40 hurdat_atl main 1892 1844 O_____________ hurdat_atl AL101950 22.7000 -48.0000 TS 40 0 10 288
1950285N22313 1950 90 NA NA JIG 1950-10-11 21:00:00 TS 22.8498 -48.4926 main 1844 1800 P_____________ AL101950 22.8498 -48.4926 TS 42 0 10 288
1950285N22313 1950 90 NA NA JIG 1950-10-12 00:00:00 TS 23.0000 -49.0000 45 hurdat_atl main 1800 1753 O_____________ hurdat_atl AL101950 23.0000 -49.0000 TS 45 0 10 287
1950285N22313 1950 90 NA NA JIG 1950-10-12 03:00:00 TS 23.1499 -49.5426 main 1753 1699 P_____________ AL101950 23.1499 -49.5426 TS 45 0 11 287
1950285N22313 1950 90 NA NA JIG 1950-10-12 06:00:00 TS 23.3000 -50.1000 45 hurdat_atl main 1699 1653 O_____________ hurdat_atl AL101950 23.3000 -50.1000 TS 45 0 11 286
1950285N22313 1950 90 NA NA JIG 1950-10-12 09:00:00 TS 23.4498 -50.6501 main 1644 1602 P_____________ AL101950 23.4498 -50.6501 TS 47 0 11 287
1950285N22313 1950 90 NA NA JIG 1950-10-12 12:00:00 TS 23.6000 -51.2000 50 hurdat_atl main 1602 1558 O_____________ hurdat_atl AL101950 23.6000 -51.2000 TS 50 0 11 286
1950285N22313 1950 90 NA NA JIG 1950-10-12 15:00:00 TS 23.7423 -51.7502 main 1548 1508 P_____________ AL101950 23.7423 -51.7502 TS 52 0 11 287
1950285N22313 1950 90 NA NA JIG 1950-10-12 18:00:00 TS 23.9000 -52.3000 55 hurdat_atl main 1508 1470 O_____________ hurdat_atl AL101950 23.9000 -52.3000 TS 55 0 11 289
1950285N22313 1950 90 NA NA JIG 1950-10-12 21:00:00 TS 24.0849 -52.8576 main 1461 1424 P_____________ AL101950 24.0849 -52.8576 TS 55 0 11 292
1950285N22313 1950 90 NA NA JIG 1950-10-13 00:00:00 TS 24.3000 -53.4000 55 hurdat_atl main 1424 1388 O_____________ hurdat_atl AL101950 24.3000 -53.4000 TS 55 0 11 295
1950285N22313 1950 90 NA NA JIG 1950-10-13 03:00:00 TS 24.5347 -53.9003 main 1388 1359 P_____________ AL101950 24.5347 -53.9003 TS 57 0 10 299
1950285N22313 1950 90 NA NA JIG 1950-10-13 06:00:00 TS 24.8000 -54.4000 60 hurdat_atl main 1359 1333 O_____________ hurdat_atl AL101950 24.8000 -54.4000 TS 60 0 11 300
1950285N22313 1950 90 NA NA JIG 1950-10-13 09:00:00 TS 25.0848 -54.9353 main 1333 1302 P_____________ AL101950 25.0848 -54.9353 TS 62 0 12 301
1950285N22313 1950 90 NA NA JIG 1950-10-13 12:00:00 TS 25.4000 -55.5000 65 hurdat_atl main 1302 1273 O_____________ hurdat_atl AL101950 25.4000 -55.5000 HU 65 1 12 301
1950285N22313 1950 90 NA NA JIG 1950-10-13 15:00:00 TS 25.7275 -56.1078 main 1273 1255 P_____________ AL101950 25.7275 -56.1078 HU 67 1 13 303
1950285N22313 1950 90 NA NA JIG 1950-10-13 18:00:00 TS 26.1000 -56.7000 70 hurdat_atl main 1255 1248 O_____________ hurdat_atl AL101950 26.1000 -56.7000 HU 70 1 13 309
1950285N22313 1950 90 NA NA JIG 1950-10-13 21:00:00 TS 26.5272 -57.2228 main 1250 1250 P_____________ AL101950 26.5272 -57.2228 HU 72 1 13 315
1950285N22313 1950 90 NA NA JIG 1950-10-14 00:00:00 TS 27.0000 -57.7000 75 hurdat_atl main 1256 1256 O_____________ hurdat_atl AL101950 27.0000 -57.7000 HU 75 1 13 319
1950285N22313 1950 90 NA NA JIG 1950-10-14 03:00:00 TS 27.4923 -58.1653 main 1267 1267 P_____________ AL101950 27.4923 -58.1653 HU 75 1 13 321
1950285N22313 1950 90 NA NA JIG 1950-10-14 06:00:00 TS 28.0000 -58.6000 75 hurdat_atl main 1288 1288 O_____________ hurdat_atl AL101950 28.0000 -58.6000 HU 75 1 13 324
1950285N22313 1950 90 NA NA JIG 1950-10-14 09:00:00 TS 28.5074 -59.0153 main 1313 1313 P_____________ AL101950 28.5074 -59.0153 HU 77 1 12 325
1950285N22313 1950 90 NA NA JIG 1950-10-14 12:00:00 TS 29.0000 -59.4000 80 hurdat_atl main 1341 1341 O_____________ hurdat_atl AL101950 29.0000 -59.4000 HU 80 1 12 324
1950285N22313 1950 90 NA NA JIG 1950-10-14 15:00:00 TS 29.4576 -59.7950 main 1372 1368 P_____________ AL101950 29.4576 -59.7950 HU 80 1 11 326
1950285N22313 1950 90 NA NA JIG 1950-10-14 18:00:00 TS 29.9000 -60.1000 80 hurdat_atl main 1400 1400 O_____________ hurdat_atl AL101950 29.9000 -60.1000 HU 80 1 10 335
1950285N22313 1950 90 NA NA JIG 1950-10-14 21:00:00 TS 30.3348 -60.2603 main 1433 1433 P_____________ AL101950 30.3348 -60.2603 HU 82 1 9 349
1950285N22313 1950 90 NA NA JIG 1950-10-15 00:00:00 TS 30.8000 -60.3000 85 hurdat_atl main 1481 1427 O_____________ hurdat_atl AL101950 30.8000 -60.3000 HU 85 2 10 358
1950285N22313 1950 90 NA NA JIG 1950-10-15 03:00:00 TS 31.3349 -60.3023 main 1427 1366 P_____________ AL101950 31.3349 -60.3023 HU 87 2 11 5
1950285N22313 1950 90 NA NA JIG 1950-10-15 06:00:00 TS 31.9000 -60.2000 90 hurdat_atl main 1366 1316 O_____________ hurdat_atl AL101950 31.9000 -60.2000 HU 90 2 11 12
1950285N22313 1950 90 NA NA JIG 1950-10-15 09:00:00 TS 32.4496 -60.0317 main 1319 1265 P_____________ AL101950 32.4496 -60.0317 HU 95 2 12 21
1950285N22313 1950 90 NA NA JIG 1950-10-15 12:00:00 TS 33.0000 -59.7000 100 hurdat_atl main 1265 1231 O_____________ hurdat_atl AL101950 33.0000 -59.7000 HU 100 3 13 34
1950285N22313 1950 90 NA NA JIG 1950-10-15 15:00:00 TS 33.5579 -59.1455 main 1225 1199 P_____________ AL101950 33.5579 -59.1455 HU 100 3 15 42
1950285N22313 1950 90 NA NA JIG 1950-10-15 18:00:00 TS 34.1000 -58.5000 100 hurdat_atl main 1199 1172 O_____________ hurdat_atl AL101950 34.1000 -58.5000 HU 100 3 14 43
1950285N22313 1950 90 NA NA JIG 1950-10-15 21:00:00 TS 34.6144 -57.9565 main 1172 1153 P_____________ AL101950 34.6144 -57.9565 HU 95 2 14 42
1950285N22313 1950 90 NA NA JIG 1950-10-16 00:00:00 TS 35.1000 -57.4000 90 hurdat_atl main 1153 1135 O_____________ hurdat_atl AL101950 35.1000 -57.4000 HU 90 2 13 46
1950285N22313 1950 90 NA NA JIG 1950-10-16 03:00:00 TS 35.5571 -56.7791 main 1127 1103 P_____________ AL101950 35.5571 -56.7791 HU 85 2 14 50
1950285N22313 1950 90 NA NA JIG 1950-10-16 06:00:00 ET 36.0000 -56.1000 80 hurdat_atl main 1106 1081 O_____________ hurdat_atl AL101950 36.0000 -56.1000 EX 80 -4 14 51
1950285N22313 1950 90 NA NA JIG 1950-10-16 09:00:00 ET 36.4258 -55.4296 main 1088 1066 P_____________ AL101950 36.4258 -55.4296 EX 77 -4 15 53
1950285N22313 1950 90 NA NA JIG 1950-10-16 12:00:00 ET 36.9000 -54.6000 75 hurdat_atl main 1070 1023 O_____________ hurdat_atl AL101950 36.9000 -54.6000 EX 75 -4 19 56
1950285N22313 1950 90 NA NA JIG 1950-10-16 15:00:00 ET 37.4617 -53.5107 main 1012 948 P_____________ AL101950 37.4617 -53.5107 EX 75 -4 22 58
1950285N22313 1950 90 NA NA JIG 1950-10-16 18:00:00 ET 38.1000 -52.2000 75 hurdat_atl main 948 896 O_____________ hurdat_atl AL101950 38.1000 -52.2000 EX 75 -4 25 59
1950285N22313 1950 90 NA NA JIG 1950-10-16 21:00:00 ET 38.7767 -50.7580 main 889 849 P_____________ AL101950 38.7767 -50.7580 EX 75 -4 27 59
1950285N22313 1950 90 NA NA JIG 1950-10-17 00:00:00 ET 39.5000 -49.2000 75 hurdat_atl main 853 837 O_____________ hurdat_atl AL101950 39.5000 -49.2000 EX 75 -4 28 60
1950285N22313 1950 90 NA NA JIG 1950-10-17 03:00:00 ET 40.2035 -47.6096 main 841 835 P_____________ AL101950 40.2035 -47.6096 EX 75 -4 29 58
1950285N22313 1950 90 NA NA JIG 1950-10-17 06:00:00 ET 41.0000 -46.0000 75 hurdat_atl main 847 847 O_____________ hurdat_atl AL101950 41.0000 -46.0000 EX 75 -4 30 54
1950285N22313 1950 90 NA NA JIG 1950-10-17 09:00:00 ET 41.9613 -44.3764 main 863 863 P_____________ AL101950 41.9613 -44.3764 EX 72 -4 31 50
1950285N22313 1950 90 NA NA JIG 1950-10-17 12:00:00 ET 43.0000 -42.8000 70 hurdat_atl main 903 903 O_____________ hurdat_atl AL101950 43.0000 -42.8000 EX 70 -4 30 49
1950285N22313 1950 90 NA NA JIG 1950-10-17 15:00:00 ET 43.9611 -41.2837 main 954 954 P_____________ AL101950 43.9611 -41.2837 EX 67 -4 29 46
1950285N22313 1950 90 NA NA JIG 1950-10-17 18:00:00 ET 45.0000 -39.9000 65 hurdat_atl main 1010 1010 O_____________ hurdat_atl AL101950 45.0000 -39.9000 EX 65 -4 29 40
1950285N22313 1950 90 NA NA JIG 1950-10-17 21:00:00 ET 46.2018 -38.6694 main 1060 1060 P_____________ AL101950 46.2018 -38.6694 EX 65 -4 30 34
1950285N22313 1950 90 NA NA JIG 1950-10-18 00:00:00 ET 47.5000 -37.5000 65 hurdat_atl main 1127 O_____________ hurdat_atl AL101950 47.5000 -37.5000 EX 65 -4 30 31

About IBTrACS Database

This database is a web-friendly format of International Best Track Archive for Climate Stewardship (IBTrACS), a global best track data archive curated by NOAA dating back to 1842.

Updated: 2021-12-03